createdAt,value
2017-07-27T00:00:26.453Z,16.03
2017-07-27T00:03:00.561Z,15.33
2017-07-27T00:05:34.197Z,14.30
2017-07-27T00:08:08.067Z,16.10
2017-07-27T00:10:41.653Z,15.20
2017-07-27T00:13:15.332Z,15.47
2017-07-27T00:15:48.986Z,18.53
2017-07-27T00:18:23.655Z,15.87
2017-07-27T00:20:58.149Z,16.00
2017-07-27T00:23:31.857Z,16.00
2017-07-27T00:26:06.429Z,18.77
2017-07-27T00:28:40.407Z,16.43
2017-07-27T00:31:14.333Z,15.43
2017-07-27T00:33:48.800Z,14.97
2017-07-27T00:36:23.298Z,15.23
2017-07-27T00:38:57.861Z,14.07
2017-07-27T00:41:31.552Z,13.53
2017-07-27T00:44:06.087Z,13.43
2017-07-27T00:46:40.014Z,14.50
2017-07-27T00:49:13.818Z,16.07
2017-07-27T00:51:47.416Z,15.97
2017-07-27T00:54:21.186Z,14.20
2017-07-27T00:56:54.969Z,15.77
2017-07-27T00:59:29.523Z,14.27
2017-07-27T01:02:03.275Z,12.13
2017-07-27T01:04:36.938Z,11.63
2017-07-27T01:07:10.535Z,13.70
2017-07-27T01:09:44.344Z,12.90
2017-07-27T01:12:17.965Z,13.80
2017-07-27T01:14:51.639Z,16.40
2017-07-27T01:17:25.282Z,14.10
2017-07-27T01:19:59.827Z,12.70
2017-07-27T01:22:34.241Z,13.87
2017-07-27T01:25:08.213Z,13.50
2017-07-27T01:27:42.672Z,14.27
2017-07-27T01:30:16.538Z,12.73
2017-07-27T01:32:50.236Z,14.13
2017-07-27T01:35:24.010Z,13.13
2017-07-27T01:37:58.652Z,13.97
2017-07-27T01:40:32.365Z,12.80
2017-07-27T01:43:06.788Z,13.10
2017-07-27T01:45:40.518Z,13.30
2017-07-27T01:48:14.842Z,12.50
2017-07-27T01:50:49.437Z,13.37
2017-07-27T01:53:23.091Z,13.47
2017-07-27T01:55:57.725Z,15.20
2017-07-27T01:58:32.347Z,13.33
2017-07-27T02:01:07.453Z,13.83
2017-07-27T02:03:41.331Z,15.23
2017-07-27T02:06:16.058Z,15.20
2017-07-27T02:08:49.932Z,14.47
2017-07-27T02:11:24.480Z,14.67
2017-07-27T02:13:58.285Z,14.77
2017-07-27T02:16:32.729Z,13.17
2017-07-27T02:19:06.572Z,13.70
2017-07-27T02:21:40.240Z,13.10
2017-07-27T02:24:13.860Z,13.80
2017-07-27T02:26:47.542Z,15.50
2017-07-27T02:29:21.238Z,13.77
2017-07-27T02:31:55.895Z,13.97
2017-07-27T02:34:30.330Z,13.77
2017-07-27T02:37:04.216Z,13.53
2017-07-27T02:39:38.799Z,13.63
2017-07-27T02:42:12.542Z,14.00
2017-07-27T02:44:46.194Z,12.27
2017-07-27T02:47:20.036Z,14.07
2017-07-27T02:49:53.689Z,15.00
2017-07-27T02:52:28.301Z,13.77
2017-07-27T02:55:01.891Z,14.27
2017-07-27T02:57:35.752Z,12.87
2017-07-27T03:00:10.135Z,9.60
2017-07-27T03:02:44.054Z,8.43
2017-07-27T03:05:18.572Z,7.50
2017-07-27T03:07:52.464Z,7.93
2017-07-27T03:10:26.646Z,6.77
2017-07-27T03:13:01.630Z,7.40
2017-07-27T03:15:35.533Z,8.17
2017-07-27T03:18:10.094Z,8.17
2017-07-27T03:20:43.936Z,7.57
2017-07-27T03:23:18.529Z,8.67
2017-07-27T03:25:53.113Z,7.70
2017-07-27T03:28:27.114Z,8.30
2017-07-27T03:31:00.756Z,8.60
2017-07-27T03:33:36.109Z,9.20
2017-07-27T03:36:10.122Z,8.50
2017-07-27T03:38:44.532Z,9.13
2017-07-27T03:41:18.574Z,9.00
2017-07-27T03:43:52.542Z,9.50
2017-07-27T03:46:26.944Z,10.27
2017-07-27T03:49:00.803Z,10.40
2017-07-27T03:51:34.382Z,8.93
2017-07-27T03:54:09.826Z,9.90
2017-07-27T03:56:43.626Z,10.87
2017-07-27T03:59:17.491Z,9.73
2017-07-27T04:01:51.170Z,9.60
2017-07-27T04:04:24.842Z,10.47
2017-07-27T04:06:58.409Z,10.23
2017-07-27T04:09:32.113Z,10.77
2017-07-27T04:12:06.634Z,10.33
2017-07-27T04:14:40.420Z,10.60
2017-07-27T04:17:14.756Z,10.17
2017-07-27T04:19:48.521Z,10.50
2017-07-27T04:22:22.988Z,10.90
2017-07-27T04:24:58.734Z,10.60
2017-07-27T04:27:32.488Z,10.20
2017-07-27T04:30:07.023Z,11.60
2017-07-27T04:32:40.950Z,10.50
2017-07-27T04:35:15.448Z,10.77
2017-07-27T04:37:49.368Z,11.23
2017-07-27T04:40:23.233Z,10.57
2017-07-27T04:42:58.549Z,11.00
2017-07-27T04:45:32.364Z,10.60
2017-07-27T04:48:06.915Z,10.80
2017-07-27T04:50:42.269Z,10.97
2017-07-27T04:53:16.956Z,10.37
2017-07-27T04:55:51.035Z,9.57
2017-07-27T04:58:24.682Z,10.70
2017-07-27T05:00:58.326Z,8.97
2017-07-27T05:03:32.788Z,8.93
2017-07-27T05:06:06.665Z,8.93
2017-07-27T05:08:40.334Z,9.30
2017-07-27T05:11:14.973Z,9.60
2017-07-27T05:13:48.697Z,10.50
2017-07-27T05:16:22.434Z,9.10
2017-07-27T05:18:56.955Z,10.60
2017-07-27T05:21:31.531Z,11.47
2017-07-27T05:24:06.219Z,10.20
2017-07-27T05:26:40.077Z,11.57
2017-07-27T05:29:14.670Z,10.80
2017-07-27T05:31:49.264Z,11.10
2017-07-27T05:34:23.027Z,11.50
2017-07-27T05:36:56.688Z,11.47
2017-07-27T05:39:31.102Z,10.37
2017-07-27T05:42:05.086Z,12.00
2017-07-27T05:44:39.630Z,10.73
2017-07-27T05:47:13.348Z,12.47
2017-07-27T05:49:47.862Z,11.47
2017-07-27T05:52:22.652Z,11.70
2017-07-27T05:54:56.270Z,11.70
2017-07-27T05:57:32.260Z,10.90
2017-07-27T06:00:06.771Z,11.17
2017-07-27T06:02:42.260Z,10.07
2017-07-27T06:05:15.984Z,10.50
2017-07-27T06:07:49.693Z,10.93
2017-07-27T06:10:23.304Z,10.50
2017-07-27T06:12:57.049Z,10.77
2017-07-27T06:15:30.760Z,9.73
2017-07-27T06:18:05.393Z,9.77
2017-07-27T06:20:39.858Z,10.60
2017-07-27T06:23:13.858Z,10.60
2017-07-27T06:25:47.463Z,11.70
2017-07-27T06:28:21.180Z,10.60
2017-07-27T06:30:55.617Z,10.53
2017-07-27T06:33:29.529Z,10.27
2017-07-27T06:36:04.064Z,11.33
2017-07-27T06:38:37.716Z,9.50
2017-07-27T06:41:11.425Z,10.20
2017-07-27T06:43:45.260Z,9.90
2017-07-27T06:46:19.801Z,10.10
2017-07-27T06:48:53.676Z,11.10
2017-07-27T06:51:28.114Z,10.17
2017-07-27T06:54:02.179Z,10.98
2017-07-27T06:56:36.536Z,8.40
2017-07-27T06:59:11.176Z,8.60
2017-07-27T07:01:44.869Z,8.40
2017-07-27T07:04:19.478Z,9.20
2017-07-27T07:06:54.371Z,7.90
2017-07-27T07:09:29.137Z,8.33
2017-07-27T07:12:04.176Z,8.67
2017-07-27T07:14:38.073Z,8.00
2017-07-27T07:17:12.645Z,7.40
2017-07-27T07:19:47.226Z,8.00
2017-07-27T07:22:20.849Z,8.43
2017-07-27T07:24:55.430Z,8.43
2017-07-27T07:27:29.179Z,8.33
2017-07-27T07:30:02.821Z,9.10
2017-07-27T07:32:36.489Z,7.93
2017-07-27T07:35:11.796Z,8.90
2017-07-27T07:37:46.237Z,8.83
2017-07-27T07:40:20.028Z,7.67
2017-07-27T07:42:54.556Z,7.80
2017-07-27T07:45:29.128Z,6.93
2017-07-27T07:48:02.948Z,5.33
2017-07-27T07:50:36.627Z,5.17
2017-07-27T07:53:10.335Z,4.80
2017-07-27T07:55:45.978Z,3.80
2017-07-27T07:58:19.739Z,4.33
2017-07-27T08:00:53.429Z,4.33
2017-07-27T08:03:27.073Z,4.63
2017-07-27T08:06:01.608Z,5.07
2017-07-27T08:08:56.289Z,4.50
2017-07-27T08:11:31.254Z,4.17
2017-07-27T08:14:05.333Z,5.20
2017-07-27T08:16:39.159Z,4.60
2017-07-27T08:19:13.697Z,5.17
2017-07-27T08:21:47.313Z,4.43
2017-07-27T08:24:21.105Z,4.80
2017-07-27T08:26:55.656Z,4.83
2017-07-27T08:29:29.730Z,4.30
2017-07-27T08:32:04.287Z,4.70
2017-07-27T08:34:38.088Z,3.77
2017-07-27T08:37:11.880Z,4.73
2017-07-27T08:39:46.352Z,4.27
2017-07-27T08:42:20.436Z,4.73
2017-07-27T08:44:54.787Z,4.17
2017-07-27T08:47:29.442Z,5.00
2017-07-27T08:50:03.359Z,4.80
2017-07-27T08:52:37.053Z,4.70
2017-07-27T08:55:12.345Z,4.77
2017-07-27T08:57:46.421Z,4.47
2017-07-27T09:00:20.089Z,4.13
2017-07-27T09:02:54.567Z,4.43
2017-07-27T09:05:28.593Z,4.00
2017-07-27T09:08:02.329Z,3.50
2017-07-27T09:10:36.883Z,3.27
2017-07-27T09:13:10.647Z,3.23
2017-07-27T09:15:45.279Z,2.70
2017-07-27T09:18:19.048Z,3.27
2017-07-27T09:20:54.400Z,3.10
2017-07-27T09:23:28.576Z,3.00
2017-07-27T09:26:03.129Z,3.13
2017-07-27T09:28:36.822Z,4.00
2017-07-27T09:31:10.456Z,3.50
2017-07-27T09:33:44.218Z,3.60
2017-07-27T09:36:18.816Z,2.90
2017-07-27T09:38:53.225Z,3.40
2017-07-27T09:41:27.241Z,3.47
2017-07-27T09:44:00.998Z,3.50
2017-07-27T09:46:35.534Z,4.83
2017-07-27T09:49:09.540Z,3.70
2017-07-27T09:51:43.230Z,6.40
2017-07-27T09:54:16.943Z,3.67
2017-07-27T09:56:56.129Z,3.30
2017-07-27T09:59:30.326Z,2.90
2017-07-27T10:02:04.093Z,3.70
2017-07-27T10:04:38.774Z,3.67
2017-07-27T10:07:12.674Z,3.10
2017-07-27T10:09:47.259Z,3.40
2017-07-27T10:12:21.757Z,2.63
2017-07-27T10:14:55.494Z,3.53
2017-07-27T10:17:30.121Z,3.83
2017-07-27T10:20:03.899Z,2.67
2017-07-27T10:22:37.581Z,3.00
2017-07-27T10:25:13.333Z,3.10
2017-07-27T10:27:47.788Z,3.70
2017-07-27T10:30:21.756Z,2.70
2017-07-27T10:32:57.051Z,3.13
2017-07-27T10:35:31.161Z,3.20
2017-07-27T10:38:05.643Z,2.87
2017-07-27T10:40:39.348Z,3.27
2017-07-27T10:43:13.950Z,3.17
2017-07-27T10:45:48.480Z,2.93
2017-07-27T10:48:22.183Z,2.60
2017-07-27T10:50:56.124Z,2.87
2017-07-27T10:53:29.771Z,3.20
2017-07-27T10:56:03.640Z,3.90
2017-07-27T10:58:38.180Z,3.73
2017-07-27T11:01:12.288Z,2.93
2017-07-27T11:03:46.924Z,3.67
2017-07-27T11:06:20.726Z,4.73
2017-07-27T11:08:55.969Z,3.40
2017-07-27T11:11:29.927Z,3.57
2017-07-27T11:14:04.496Z,3.77
2017-07-27T11:16:39.250Z,4.00
2017-07-27T11:19:13.883Z,3.80
2017-07-27T11:21:47.773Z,4.43
2017-07-27T11:24:22.373Z,4.87
2017-07-27T11:26:56.130Z,4.10
2017-07-27T11:29:30.762Z,3.67
2017-07-27T11:32:05.388Z,3.90
2017-07-27T11:34:39.333Z,4.13
2017-07-27T11:37:13.909Z,3.50
2017-07-27T11:39:49.213Z,4.37
2017-07-27T11:42:23.310Z,4.77
2017-07-27T11:44:58.560Z,4.33
2017-07-27T11:47:32.642Z,4.30
2017-07-27T11:50:06.284Z,3.93
2017-07-27T11:52:39.965Z,3.97
2017-07-27T11:55:13.585Z,4.07
